Aeroporto :
LOGIN :

Iscrizione | Disclaimer

   EN    FR    IT 

 










Sommario :    VFR   VFR Marginale   IFR   IFR Intensivo   IFR Molto Intensivo
Visibilità : 
Base nubi : 
>= 8 km
>= 3000ft
5 / 8 km
1000 / 3000 ft
1500m / 5 km
500 / 1000 ft
800 / 1500m
200 / 500 ft
< 800m
< 200 ft
Simboli :   Temporali  Nebbia  Neve Forte  Precipitazioni Forti  Vento > 20 kt
SIGMETs :   Varie  Temporali  Ghiacco  Turbolenza  Onda orograficha  Ceneri Vulcaniche






- Altitudine del aeroporto : 53 ft
- Codice IATA : HAM


EDDH - Hamburg

ULTIMO METAR :
  • 181220Z 28006KT 200V350 CAVOK 33/19 Q1012 NOSIG

METARs OBSOLETI :
  • 181150Z 33007KT 270V040 CAVOK 32/19 Q1012 NOSIG
  • 181120Z 32009KT 280V010 CAVOK 31/19 Q1012 NOSIG
  • 181050Z 32008KT 280V010 CAVOK 31/19 Q1012 NOSIG
  • 181020Z 32007KT 290V020 CAVOK 31/18 Q1012 NOSIG
  • 180950Z 30006KT 240V360 CAVOK 30/18 Q1013 NOSIG

TAF TAF EDDH
Valido dal 18 a 12 ore il 19 a 18 ore UTC


181100Z 1812/1918 34005KT CAVOK
TEMPO 1812/1819 VRB03KT
PROB30
TEMPO 1815/1822 22020G40KT 2500 TSRAGR BKN060CB
BECMG 1819/1821 VRB03KT
PROB30
TEMPO 1903/1905 22020G30KT 4500 TSRA BKN060CB
BECMG 1903/1906 23009KT



MetMap, La meteo Aeronautica in un colpo d'occhio ! - Copyright ORBIFLY Dicembre 2007 - Disclaimer

ORBIFLY MET'MAP TEAM :

Programmazione e sviluppo : Alexandra Zaïnal
Concezione : Baudouin d'Aumeries
Aiuto per la programmazione : Marc-Olivier Méhu
Supporto tecnico e logistico : Manuel Goepfert
Aiuto per la traduzione : Arnaldo La Scala

Contatto : metmap@orbifly.com




FONTI E CREDITI :

   NOAA